sensor_id;sensor_type;location;lat;lon;timestamp;pressure;altitude;pressure_sealevel;temperature;humidity
69239;BME280;56349;51.816;-0.026;2022-07-01T00:01:56;100792.96;;;25.27;31.73
69239;BME280;56349;51.816;-0.026;2022-07-01T00:04:20;100793.18;;;24.93;31.81
69239;BME280;56349;51.816;-0.026;2022-07-01T00:06:46;100794.07;;;25.13;31.89
69239;BME280;56349;51.816;-0.026;2022-07-01T00:09:12;100793.20;;;25.06;31.96
69239;BME280;56349;51.816;-0.026;2022-07-01T00:11:37;100788.49;;;24.98;32.03
69239;BME280;56349;51.816;-0.026;2022-07-01T00:14:03;100788.63;;;24.91;32.12
69239;BME280;56349;51.816;-0.026;2022-07-01T00:16:29;100786.55;;;25.08;32.20
69239;BME280;56349;51.816;-0.026;2022-07-01T00:18:54;100785.23;;;25.26;32.25
69239;BME280;56349;51.816;-0.026;2022-07-01T00:21:20;100784.95;;;24.97;32.32
69239;BME280;56349;51.816;-0.026;2022-07-01T00:23:46;100784.09;;;24.69;32.39
69239;BME280;56349;51.816;-0.026;2022-07-01T00:26:12;100780.75;;;25.04;32.47
69239;BME280;56349;51.816;-0.026;2022-07-01T00:28:37;100780.77;;;25.00;32.53
69239;BME280;56349;51.816;-0.026;2022-07-01T00:31:03;100783.49;;;24.52;32.59
69239;BME280;56349;51.816;-0.026;2022-07-01T00:33:29;100787.34;;;24.71;32.63
69239;BME280;56349;51.816;-0.026;2022-07-01T00:35:54;100792.60;;;24.69;32.66
69239;BME280;56349;51.816;-0.026;2022-07-01T00:38:20;100795.97;;;24.64;32.71
69239;BME280;56349;51.816;-0.026;2022-07-01T00:40:51;100795.51;;;24.58;32.79
69239;BME280;56349;51.816;-0.026;2022-07-01T00:43:12;100793.26;;;24.53;32.85
69239;BME280;56349;51.816;-0.026;2022-07-01T00:45:43;100798.19;;;24.72;32.89
69239;BME280;56349;51.816;-0.026;2022-07-01T00:48:04;100801.05;;;24.67;32.93
69239;BME280;56349;51.816;-0.026;2022-07-01T00:50:29;100799.81;;;24.63;32.98
69239;BME280;56349;51.816;-0.026;2022-07-01T00:52:55;100802.06;;;24.59;33.03
69239;BME280;56349;51.816;-0.026;2022-07-01T00:55:21;100799.67;;;24.56;33.07
69239;BME280;56349;51.816;-0.026;2022-07-01T00:57:47;100795.62;;;24.30;33.10
69239;BME280;56349;51.816;-0.026;2022-07-01T01:00:15;100794.71;;;24.49;33.13
69239;BME280;56349;51.816;-0.026;2022-07-01T01:02:39;100793.43;;;24.45;33.14
69239;BME280;56349;51.816;-0.026;2022-07-01T01:05:05;100793.99;;;24.42;33.21
69239;BME280;56349;51.816;-0.026;2022-07-01T01:07:31;100791.29;;;24.37;33.24
69239;BME280;56349;51.816;-0.026;2022-07-01T01:09:55;100790.76;;;24.34;33.29
69239;BME280;56349;51.816;-0.026;2022-07-01T01:12:21;100788.95;;;24.32;33.30
69239;BME280;56349;51.816;-0.026;2022-07-01T01:14:48;100787.93;;;24.29;33.34
69239;BME280;56349;51.816;-0.026;2022-07-01T01:17:13;100786.28;;;24.28;33.35
69239;BME280;56349;51.816;-0.026;2022-07-01T01:19:38;100785.16;;;24.52;33.37
69239;BME280;56349;51.816;-0.026;2022-07-01T01:22:04;100787.13;;;24.21;33.41
69239;BME280;56349;51.816;-0.026;2022-07-01T01:24:30;100789.18;;;24.46;33.44
69239;BME280;56349;51.816;-0.026;2022-07-01T01:26:56;100789.04;;;24.17;33.45
69239;BME280;56349;51.816;-0.026;2022-07-01T01:29:21;100787.55;;;24.15;33.48
69239;BME280;56349;51.816;-0.026;2022-07-01T01:31:47;100785.72;;;24.13;33.50
69239;BME280;56349;51.816;-0.026;2022-07-01T01:34:13;100782.24;;;24.11;33.50
69239;BME280;56349;51.816;-0.026;2022-07-01T01:36:39;100788.21;;;24.09;33.50
69239;BME280;56349;51.816;-0.026;2022-07-01T01:39:05;100789.51;;;24.35;33.52
69239;BME280;56349;51.816;-0.026;2022-07-01T01:41:30;100792.01;;;24.06;33.53
69239;BME280;56349;51.816;-0.026;2022-07-01T01:43:56;100795.78;;;24.04;33.55
69239;BME280;56349;51.816;-0.026;2022-07-01T01:46:21;100796.45;;;24.01;33.56
69239;BME280;56349;51.816;-0.026;2022-07-01T01:48:47;100796.09;;;24.00;33.58
69239;BME280;56349;51.816;-0.026;2022-07-01T01:51:13;100796.14;;;23.97;33.60
69239;BME280;56349;51.816;-0.026;2022-07-01T01:53:39;100796.45;;;23.95;33.62
69239;BME280;56349;51.816;-0.026;2022-07-01T01:56:05;100797.58;;;24.20;33.63
69239;BME280;56349;51.816;-0.026;2022-07-01T01:58:30;100799.13;;;23.91;33.66
69239;BME280;56349;51.816;-0.026;2022-07-01T02:00:56;100798.81;;;24.15;33.69
69239;BME280;56349;51.816;-0.026;2022-07-01T02:03:22;100797.53;;;23.86;33.70
69239;BME280;56349;51.816;-0.026;2022-07-01T02:05:48;100796.82;;;23.84;33.71
69239;BME280;56349;51.816;-0.026;2022-07-01T02:08:13;100796.83;;;24.09;33.73
69239;BME280;56349;51.816;-0.026;2022-07-01T02:10:39;100797.41;;;23.80;33.75
69239;BME280;56349;51.816;-0.026;2022-07-01T02:13:05;100796.24;;;24.06;33.75
69239;BME280;56349;51.816;-0.026;2022-07-01T02:15:31;100793.63;;;23.78;33.75
69239;BME280;56349;51.816;-0.026;2022-07-01T02:17:56;100792.26;;;24.03;33.76
69239;BME280;56349;51.816;-0.026;2022-07-01T02:20:22;100789.98;;;23.74;33.78
69239;BME280;56349;51.816;-0.026;2022-07-01T02:22:48;100788.79;;;23.72;33.79
69239;BME280;56349;51.816;-0.026;2022-07-01T02:25:14;100788.26;;;23.97;33.82
69239;BME280;56349;51.816;-0.026;2022-07-01T02:27:39;100789.93;;;23.97;33.81
69239;BME280;56349;51.816;-0.026;2022-07-01T02:30:06;100789.52;;;23.70;33.80
69239;BME280;56349;51.816;-0.026;2022-07-01T02:32:31;100791.00;;;23.95;33.80
69239;BME280;56349;51.816;-0.026;2022-07-01T02:34:57;100791.01;;;23.93;33.82
69239;BME280;56349;51.816;-0.026;2022-07-01T02:37:22;100792.58;;;23.90;33.84
69239;BME280;56349;51.816;-0.026;2022-07-01T02:39:48;100794.23;;;23.87;33.86
69239;BME280;56349;51.816;-0.026;2022-07-01T02:42:14;100798.04;;;23.85;33.88
69239;BME280;56349;51.816;-0.026;2022-07-01T02:44:39;100801.62;;;24.06;33.89
69239;BME280;56349;51.816;-0.026;2022-07-01T02:47:06;100803.20;;;23.56;33.89
69239;BME280;56349;51.816;-0.026;2022-07-01T02:49:31;100799.80;;;23.55;33.89
69239;BME280;56349;51.816;-0.026;2022-07-01T02:51:57;100803.85;;;23.81;33.91
69239;BME280;56349;51.816;-0.026;2022-07-01T02:54:23;100809.62;;;23.80;33.91
69239;BME280;56349;51.816;-0.026;2022-07-01T02:56:48;100811.11;;;23.78;33.92
69239;BME280;56349;51.816;-0.026;2022-07-01T02:59:14;100813.44;;;23.76;33.92
69239;BME280;56349;51.816;-0.026;2022-07-01T03:01:40;100820.07;;;23.50;33.92
69239;BME280;56349;51.816;-0.026;2022-07-01T03:04:05;100821.02;;;23.97;33.93
69239;BME280;56349;51.816;-0.026;2022-07-01T03:06:31;100823.11;;;23.72;33.94
69239;BME280;56349;51.816;-0.026;2022-07-01T03:08:57;100826.04;;;23.72;33.94
69239;BME280;56349;51.816;-0.026;2022-07-01T03:11:22;100825.57;;;23.46;33.91
69239;BME280;56349;51.816;-0.026;2022-07-01T03:13:48;100824.60;;;23.94;33.92
69239;BME280;56349;51.816;-0.026;2022-07-01T03:16:14;100825.32;;;23.71;33.92
69239;BME280;56349;51.816;-0.026;2022-07-01T03:18:39;100824.75;;;23.43;33.93
69239;BME280;56349;51.816;-0.026;2022-07-01T03:21:05;100825.45;;;23.90;33.95
69239;BME280;56349;51.816;-0.026;2022-07-01T03:23:31;100824.31;;;23.88;33.96
69239;BME280;56349;51.816;-0.026;2022-07-01T03:25:56;100823.40;;;23.66;33.94
69239;BME280;56349;51.816;-0.026;2022-07-01T03:28:22;100823.98;;;23.88;33.95
69239;BME280;56349;51.816;-0.026;2022-07-01T03:30:48;100825.29;;;23.64;33.97
69239;BME280;56349;51.816;-0.026;2022-07-01T03:33:14;100824.99;;;23.64;34.02
69239;BME280;56349;51.816;-0.026;2022-07-01T03:35:39;100828.97;;;23.88;34.06
69239;BME280;56349;51.816;-0.026;2022-07-01T03:38:05;100828.90;;;23.70;34.08
69239;BME280;56349;51.816;-0.026;2022-07-01T03:40:30;100832.72;;;24.00;34.06
69239;BME280;56349;51.816;-0.026;2022-07-01T03:42:56;100838.53;;;23.90;34.01
69239;BME280;56349;51.816;-0.026;2022-07-01T03:45:21;100839.56;;;23.78;33.91
69239;BME280;56349;51.816;-0.026;2022-07-01T03:47:47;100840.58;;;23.94;33.78
69239;BME280;56349;51.816;-0.026;2022-07-01T03:50:12;100838.12;;;24.13;33.57
69239;BME280;56349;51.816;-0.026;2022-07-01T03:52:38;100846.52;;;24.31;33.34
69239;BME280;56349;51.816;-0.026;2022-07-01T03:55:04;100846.50;;;24.46;33.13
69239;BME280;56349;51.816;-0.026;2022-07-01T03:57:28;100848.04;;;24.34;32.94
69239;BME280;56349;51.816;-0.026;2022-07-01T03:59:54;100852.12;;;24.44;32.74
69239;BME280;56349;51.816;-0.026;2022-07-01T04:02:20;100853.67;;;24.72;32.59
69239;BME280;56349;51.816;-0.026;2022-07-01T04:04:45;100853.01;;;24.49;32.51
69239;BME280;56349;51.816;-0.026;2022-07-01T04:07:11;100854.69;;;24.68;32.46
69239;BME280;56349;51.816;-0.026;2022-07-01T04:09:37;100855.84;;;24.65;32.43
69239;BME280;56349;51.816;-0.026;2022-07-01T04:12:04;100856.84;;;24.38;32.42
69239;BME280;56349;51.816;-0.026;2022-07-01T04:14:30;100855.80;;;24.54;32.42
69239;BME280;56349;51.816;-0.026;2022-07-01T04:16:54;100857.36;;;24.27;32.43
69239;BME280;56349;51.816;-0.026;2022-07-01T04:19:20;100861.78;;;24.43;32.45
69239;BME280;56349;51.816;-0.026;2022-07-01T04:21:45;100862.68;;;24.35;32.49
69239;BME280;56349;51.816;-0.026;2022-07-01T04:24:11;100864.64;;;24.05;32.54
69239;BME280;56349;51.816;-0.026;2022-07-01T04:26:37;100864.46;;;24.21;32.58
69239;BME280;56349;51.816;-0.026;2022-07-01T04:29:03;100863.29;;;24.15;32.63
69239;BME280;56349;51.816;-0.026;2022-07-01T04:31:28;100861.25;;;24.08;32.67
69239;BME280;56349;51.816;-0.026;2022-07-01T04:33:53;100864.02;;;24.03;32.73
69239;BME280;56349;51.816;-0.026;2022-07-01T04:36:19;100865.22;;;23.97;32.77
69239;BME280;56349;51.816;-0.026;2022-07-01T04:38:45;100870.29;;;23.92;32.82
69239;BME280;56349;51.816;-0.026;2022-07-01T04:41:11;100875.66;;;23.88;32.86
69239;BME280;56349;51.816;-0.026;2022-07-01T04:43:37;100879.17;;;24.10;32.90
69239;BME280;56349;51.816;-0.026;2022-07-01T04:46:02;100881.92;;;23.78;32.97
69239;BME280;56349;51.816;-0.026;2022-07-01T04:48:28;100884.06;;;24.01;33.00
69239;BME280;56349;51.816;-0.026;2022-07-01T04:50:54;100884.28;;;23.72;33.03
69239;BME280;56349;51.816;-0.026;2022-07-01T04:53:19;100885.82;;;23.68;33.06
69239;BME280;56349;51.816;-0.026;2022-07-01T04:55:45;100885.24;;;23.88;33.11
69239;BME280;56349;51.816;-0.026;2022-07-01T04:58:12;100883.81;;;23.57;33.16
69239;BME280;56349;51.816;-0.026;2022-07-01T05:00:37;100882.49;;;24.05;33.17
69239;BME280;56349;51.816;-0.026;2022-07-01T05:03:02;100884.64;;;23.54;33.19
69239;BME280;56349;51.816;-0.026;2022-07-01T05:05:28;100885.51;;;24.00;33.23
69239;BME280;56349;51.816;-0.026;2022-07-01T05:07:54;100888.23;;;23.97;33.25
69239;BME280;56349;51.816;-0.026;2022-07-01T05:10:20;100888.30;;;23.94;33.28
69239;BME280;56349;51.816;-0.026;2022-07-01T05:12:45;100891.35;;;23.69;33.30
69239;BME280;56349;51.816;-0.026;2022-07-01T05:15:11;100891.26;;;23.89;33.33
69239;BME280;56349;51.816;-0.026;2022-07-01T05:17:37;100888.55;;;23.68;33.31
69239;BME280;56349;51.816;-0.026;2022-07-01T05:20:04;100889.23;;;23.66;33.32
69239;BME280;56349;51.816;-0.026;2022-07-01T05:22:28;100891.39;;;23.64;33.35
69239;BME280;56349;51.816;-0.026;2022-07-01T05:24:54;100894.10;;;23.82;33.40
69239;BME280;56349;51.816;-0.026;2022-07-01T05:27:20;100896.56;;;23.34;33.40
69239;BME280;56349;51.816;-0.026;2022-07-01T05:29:46;100893.85;;;23.60;33.40
69239;BME280;56349;51.816;-0.026;2022-07-01T05:32:11;100890.69;;;23.58;33.40
69239;BME280;56349;51.816;-0.026;2022-07-01T05:34:37;100887.90;;;23.79;33.41
69239;BME280;56349;51.816;-0.026;2022-07-01T05:37:03;100886.64;;;23.78;33.43
69239;BME280;56349;51.816;-0.026;2022-07-01T05:39:28;100884.64;;;23.54;33.43
69239;BME280;56349;51.816;-0.026;2022-07-01T05:41:54;100882.79;;;23.54;33.42
69239;BME280;56349;51.816;-0.026;2022-07-01T05:44:19;100883.96;;;23.54;33.41
69239;BME280;56349;51.816;-0.026;2022-07-01T05:46:47;100884.12;;;23.53;33.42
69239;BME280;56349;51.816;-0.026;2022-07-01T05:49:11;100886.66;;;23.53;33.46
69239;BME280;56349;51.816;-0.026;2022-07-01T05:51:37;100884.67;;;23.75;33.56
69239;BME280;56349;51.816;-0.026;2022-07-01T05:54:02;100884.85;;;23.53;33.64
69239;BME280;56349;51.816;-0.026;2022-07-01T05:56:28;100886.48;;;23.74;33.74
69239;BME280;56349;51.816;-0.026;2022-07-01T05:58:54;100889.60;;;23.75;33.80
69239;BME280;56349;51.816;-0.026;2022-07-01T06:01:25;100890.09;;;23.27;33.85
69239;BME280;56349;51.816;-0.026;2022-07-01T06:03:46;100890.52;;;23.75;33.83
69239;BME280;56349;51.816;-0.026;2022-07-01T06:06:11;100888.49;;;23.53;33.85
69239;BME280;56349;51.816;-0.026;2022-07-01T06:08:37;100889.85;;;23.76;33.92
69239;BME280;56349;51.816;-0.026;2022-07-01T06:11:03;100893.27;;;23.55;34.07
69239;BME280;56349;51.816;-0.026;2022-07-01T06:13:29;100896.10;;;23.59;34.33
69239;BME280;56349;51.816;-0.026;2022-07-01T06:15:55;100894.35;;;23.62;34.73
69239;BME280;56349;51.816;-0.026;2022-07-01T06:18:21;100895.47;;;23.67;35.08
69239;BME280;56349;51.816;-0.026;2022-07-01T06:20:46;100893.54;;;23.74;35.17
69239;BME280;56349;51.816;-0.026;2022-07-01T06:23:12;100888.36;;;23.62;35.09
69239;BME280;56349;51.816;-0.026;2022-07-01T06:25:38;100889.45;;;23.81;35.02
69239;BME280;56349;51.816;-0.026;2022-07-01T06:28:04;100888.79;;;23.76;34.92
69239;BME280;56349;51.816;-0.026;2022-07-01T06:30:30;100895.28;;;24.18;34.80
69239;BME280;56349;51.816;-0.026;2022-07-01T06:32:56;100895.29;;;24.36;34.66
69239;BME280;56349;51.816;-0.026;2022-07-01T06:35:22;100897.93;;;24.15;34.48
69239;BME280;56349;51.816;-0.026;2022-07-01T06:37:48;100902.22;;;24.38;34.30
69239;BME280;56349;51.816;-0.026;2022-07-01T06:40:13;100901.52;;;24.59;34.09
69239;BME280;56349;51.816;-0.026;2022-07-01T06:42:39;100899.66;;;24.80;33.86
69239;BME280;56349;51.816;-0.026;2022-07-01T06:45:06;100898.16;;;24.99;33.60
69239;BME280;56349;51.816;-0.026;2022-07-01T06:47:30;100900.22;;;25.20;33.36
69239;BME280;56349;51.816;-0.026;2022-07-01T06:49:56;100901.61;;;25.12;33.12
69239;BME280;56349;51.816;-0.026;2022-07-01T06:52:22;100899.27;;;25.09;32.89
69239;BME280;56349;51.816;-0.026;2022-07-01T06:54:47;100897.86;;;25.26;32.65
69239;BME280;56349;51.816;-0.026;2022-07-01T06:57:13;100898.07;;;25.46;32.39
69239;BME280;56349;51.816;-0.026;2022-07-01T06:59:39;100900.51;;;25.85;32.18
69239;BME280;56349;51.816;-0.026;2022-07-01T07:02:04;100902.31;;;25.55;31.95
69239;BME280;56349;51.816;-0.026;2022-07-01T07:04:30;100899.06;;;25.93;31.79
69239;BME280;56349;51.816;-0.026;2022-07-01T07:06:56;100901.70;;;26.09;31.52
69239;BME280;56349;51.816;-0.026;2022-07-01T07:09:22;100905.19;;;26.04;31.08
69239;BME280;56349;51.816;-0.026;2022-07-01T07:11:47;100907.49;;;26.19;30.72
69239;BME280;56349;51.816;-0.026;2022-07-01T07:14:12;100909.26;;;26.07;30.50
69239;BME280;56349;51.816;-0.026;2022-07-01T07:16:38;100910.14;;;26.20;30.42
69239;BME280;56349;51.816;-0.026;2022-07-01T07:19:04;100919.67;;;26.33;30.24
69239;BME280;56349;51.816;-0.026;2022-07-01T07:21:30;100924.17;;;26.42;30.02
69239;BME280;56349;51.816;-0.026;2022-07-01T07:23:56;100928.18;;;26.53;29.85
69239;BME280;56349;51.816;-0.026;2022-07-01T07:26:22;100927.21;;;26.61;29.66
69239;BME280;56349;51.816;-0.026;2022-07-01T07:28:47;100926.41;;;26.66;29.50
69239;BME280;56349;51.816;-0.026;2022-07-01T07:31:13;100925.82;;;26.71;29.39
69239;BME280;56349;51.816;-0.026;2022-07-01T07:33:39;100930.34;;;26.78;29.31
69239;BME280;56349;51.816;-0.026;2022-07-01T07:36:05;100930.12;;;26.61;29.25
69239;BME280;56349;51.816;-0.026;2022-07-01T07:38:31;100934.48;;;26.64;29.17
69239;BME280;56349;51.816;-0.026;2022-07-01T07:40:56;100935.38;;;26.92;29.12
69239;BME280;56349;51.816;-0.026;2022-07-01T07:43:22;100938.52;;;26.99;29.05
69239;BME280;56349;51.816;-0.026;2022-07-01T07:45:48;100942.64;;;27.04;29.05
69239;BME280;56349;51.816;-0.026;2022-07-01T07:48:14;100938.14;;;26.85;29.15
69239;BME280;56349;51.816;-0.026;2022-07-01T07:50:39;100937.86;;;26.88;29.06
69239;BME280;56349;51.816;-0.026;2022-07-01T07:53:05;100937.85;;;26.91;28.93
69239;BME280;56349;51.816;-0.026;2022-07-01T07:55:31;100936.40;;;26.67;28.81
69239;BME280;56349;51.816;-0.026;2022-07-01T07:57:57;100939.49;;;26.97;28.70
69239;BME280;56349;51.816;-0.026;2022-07-01T08:00:22;100940.62;;;26.99;28.59
69239;BME280;56349;51.816;-0.026;2022-07-01T08:02:48;100944.12;;;27.24;28.49
69239;BME280;56349;51.816;-0.026;2022-07-01T08:05:14;100938.14;;;27.25;28.41
69239;BME280;56349;51.816;-0.026;2022-07-01T08:07:42;100935.41;;;27.28;28.31
69239;BME280;56349;51.816;-0.026;2022-07-01T08:10:07;100935.68;;;27.07;28.25
69239;BME280;56349;51.816;-0.026;2022-07-01T08:12:31;100940.16;;;27.31;28.17
69239;BME280;56349;51.816;-0.026;2022-07-01T08:14:56;100941.00;;;26.82;28.10
69239;BME280;56349;51.816;-0.026;2022-07-01T08:17:22;100937.34;;;27.10;28.03
69239;BME280;56349;51.816;-0.026;2022-07-01T08:19:48;100934.22;;;27.11;27.96
69239;BME280;56349;51.816;-0.026;2022-07-01T08:22:13;100936.84;;;27.11;27.94
69239;BME280;56349;51.816;-0.026;2022-07-01T08:24:39;100929.57;;;27.33;27.88
69239;BME280;56349;51.816;-0.026;2022-07-01T08:27:05;100926.18;;;27.11;27.81
69239;BME280;56349;51.816;-0.026;2022-07-01T08:29:31;100926.00;;;27.13;27.76
69239;BME280;56349;51.816;-0.026;2022-07-01T08:31:57;100928.87;;;27.14;27.70
69239;BME280;56349;51.816;-0.026;2022-07-01T08:34:22;100927.22;;;27.15;27.66
69239;BME280;56349;51.816;-0.026;2022-07-01T08:36:48;100937.40;;;27.39;27.60
69239;BME280;56349;51.816;-0.026;2022-07-01T08:39:14;100940.67;;;26.91;27.51
69239;BME280;56349;51.816;-0.026;2022-07-01T08:41:40;100939.07;;;26.93;27.48
69239;BME280;56349;51.816;-0.026;2022-07-01T08:44:06;100938.88;;;27.21;27.42
69239;BME280;56349;51.816;-0.026;2022-07-01T08:46:32;100939.74;;;27.22;27.35
69239;BME280;56349;51.816;-0.026;2022-07-01T08:48:58;100941.16;;;26.96;27.32
69239;BME280;56349;51.816;-0.026;2022-07-01T08:51:22;100943.89;;;27.49;27.27
69239;BME280;56349;51.816;-0.026;2022-07-01T08:53:48;100950.57;;;27.27;27.22
69239;BME280;56349;51.816;-0.026;2022-07-01T08:56:14;100945.31;;;27.27;27.16
69239;BME280;56349;51.816;-0.026;2022-07-01T08:58:40;100946.35;;;27.49;27.13
69239;BME280;56349;51.816;-0.026;2022-07-01T09:01:14;100945.13;;;27.49;27.10
69239;BME280;56349;51.816;-0.026;2022-07-01T09:03:32;100945.78;;;27.01;27.05
69239;BME280;56349;51.816;-0.026;2022-07-01T09:05:56;100950.03;;;27.30;27.01
69239;BME280;56349;51.816;-0.026;2022-07-01T09:08:27;100959.23;;;27.05;26.96
69239;BME280;56349;51.816;-0.026;2022-07-01T09:10:52;100959.95;;;27.06;26.93
69239;BME280;56349;51.816;-0.026;2022-07-01T09:13:13;100965.04;;;27.30;26.92
69239;BME280;56349;51.816;-0.026;2022-07-01T09:15:39;100966.20;;;27.05;26.88
69239;BME280;56349;51.816;-0.026;2022-07-01T09:18:04;100963.73;;;27.07;26.85
69239;BME280;56349;51.816;-0.026;2022-07-01T09:20:30;100962.72;;;27.08;26.81
69239;BME280;56349;51.816;-0.026;2022-07-01T09:22:59;100967.69;;;27.57;26.77
69239;BME280;56349;51.816;-0.026;2022-07-01T09:25:26;100968.38;;;27.35;26.75
69239;BME280;56349;51.816;-0.026;2022-07-01T09:27:45;100964.96;;;27.08;26.74
69239;BME280;56349;51.816;-0.026;2022-07-01T09:30:10;100966.47;;;27.37;26.70
69239;BME280;56349;51.816;-0.026;2022-07-01T09:32:36;100967.00;;;27.07;26.85
69239;BME280;56349;51.816;-0.026;2022-07-01T09:35:03;100971.53;;;27.30;26.76
69239;BME280;56349;51.816;-0.026;2022-07-01T09:37:27;100975.75;;;26.99;26.58
69239;BME280;56349;51.816;-0.026;2022-07-01T09:39:55;100970.78;;;27.18;26.48
69239;BME280;56349;51.816;-0.026;2022-07-01T09:42:20;100978.98;;;27.13;26.52
69239;BME280;56349;51.816;-0.026;2022-07-01T09:44:52;100976.99;;;27.11;26.40
69239;BME280;56349;51.816;-0.026;2022-07-01T09:47:09;100980.29;;;27.07;26.30
69239;BME280;56349;51.816;-0.026;2022-07-01T09:49:35;100981.64;;;26.80;26.29
69239;BME280;56349;51.816;-0.026;2022-07-01T09:52:00;100982.46;;;26.80;26.16
69239;BME280;56349;51.816;-0.026;2022-07-01T09:54:26;100983.19;;;26.79;26.22
69239;BME280;56349;51.816;-0.026;2022-07-01T09:56:52;100983.36;;;27.07;26.28
69239;BME280;56349;51.816;-0.026;2022-07-01T09:59:18;100990.76;;;27.31;26.38
69239;BME280;56349;51.816;-0.026;2022-07-01T10:01:44;100991.85;;;27.07;26.14
69239;BME280;56349;51.816;-0.026;2022-07-01T10:04:11;100993.52;;;26.80;26.03
69239;BME280;56349;51.816;-0.026;2022-07-01T10:06:47;100991.94;;;27.05;26.03
69239;BME280;56349;51.816;-0.026;2022-07-01T10:09:16;100998.40;;;27.03;25.99
69239;BME280;56349;51.816;-0.026;2022-07-01T10:13:53;100990.78;;;26.97;25.96
69239;BME280;56349;51.816;-0.026;2022-07-01T10:16:19;100991.02;;;26.70;26.00
69239;BME280;56349;51.816;-0.026;2022-07-01T10:18:44;100994.29;;;27.02;26.08
69239;BME280;56349;51.816;-0.026;2022-07-01T10:23:39;101002.83;;;27.08;25.60
69239;BME280;56349;51.816;-0.026;2022-07-01T10:26:03;101001.88;;;27.10;25.34
69239;BME280;56349;51.816;-0.026;2022-07-01T10:28:28;100999.90;;;26.81;25.55
69239;BME280;56349;51.816;-0.026;2022-07-01T10:30:59;100999.01;;;27.12;25.80
69239;BME280;56349;51.816;-0.026;2022-07-01T10:33:26;100998.00;;;26.89;25.99
69239;BME280;56349;51.816;-0.026;2022-07-01T10:35:47;100999.83;;;26.99;25.99
69239;BME280;56349;51.816;-0.026;2022-07-01T10:38:11;100997.85;;;27.06;25.98
69239;BME280;56349;51.816;-0.026;2022-07-01T10:40:41;100999.27;;;27.35;26.00
69239;BME280;56349;51.816;-0.026;2022-07-01T10:43:00;100999.63;;;27.08;26.03
69239;BME280;56349;51.816;-0.026;2022-07-01T10:45:26;101001.11;;;27.37;26.03
69239;BME280;56349;51.816;-0.026;2022-07-01T10:50:18;100999.10;;;27.18;26.02
69239;BME280;56349;51.816;-0.026;2022-07-01T10:55:09;100995.03;;;27.28;25.97
69239;BME280;56349;51.816;-0.026;2022-07-01T10:57:38;100992.97;;;27.32;25.95
69239;BME280;56349;51.816;-0.026;2022-07-01T11:02:28;101000.61;;;27.39;25.90
69239;BME280;56349;51.816;-0.026;2022-07-01T11:04:54;100997.85;;;27.44;25.85
69239;BME280;56349;51.816;-0.026;2022-07-01T11:07:17;100992.68;;;27.47;25.82
69239;BME280;56349;51.816;-0.026;2022-07-01T11:09:43;100998.24;;;27.50;25.79
69239;BME280;56349;51.816;-0.026;2022-07-01T11:12:09;100994.24;;;27.52;25.77
69239;BME280;56349;51.816;-0.026;2022-07-01T11:14:35;100996.80;;;27.80;25.77
69239;BME280;56349;51.816;-0.026;2022-07-01T11:17:02;101001.59;;;27.52;25.79
69239;BME280;56349;51.816;-0.026;2022-07-01T11:19:30;101000.23;;;27.53;25.78
69239;BME280;56349;51.816;-0.026;2022-07-01T11:21:52;101003.67;;;27.79;25.82
69239;BME280;56349;51.816;-0.026;2022-07-01T11:24:16;101005.02;;;27.54;25.79
69239;BME280;56349;51.816;-0.026;2022-07-01T11:26:42;101007.16;;;27.54;25.77
69239;BME280;56349;51.816;-0.026;2022-07-01T11:29:13;101005.20;;;27.81;25.77
69239;BME280;56349;51.816;-0.026;2022-07-01T11:31:35;101001.43;;;27.56;25.77
69239;BME280;56349;51.816;-0.026;2022-07-01T11:33:59;101007.89;;;27.57;25.77
69239;BME280;56349;51.816;-0.026;2022-07-01T11:36:26;100997.48;;;27.59;25.75
69239;BME280;56349;51.816;-0.026;2022-07-01T11:38:51;101000.68;;;27.59;25.75
69239;BME280;56349;51.816;-0.026;2022-07-01T11:41:19;100998.12;;;27.57;25.79
69239;BME280;56349;51.816;-0.026;2022-07-01T11:43:41;100997.15;;;27.59;25.86
69239;BME280;56349;51.816;-0.026;2022-07-01T11:46:08;101006.07;;;27.60;25.83
69239;BME280;56349;51.816;-0.026;2022-07-01T11:48:35;100998.88;;;27.63;25.74
69239;BME280;56349;51.816;-0.026;2022-07-01T11:50:58;101002.25;;;27.65;25.68
69239;BME280;56349;51.816;-0.026;2022-07-01T11:53:24;101000.92;;;27.68;25.60
69239;BME280;56349;51.816;-0.026;2022-07-01T11:55:55;101010.07;;;27.48;25.54
69239;BME280;56349;51.816;-0.026;2022-07-01T11:58:16;101011.79;;;27.98;25.52
69239;BME280;56349;51.816;-0.026;2022-07-01T12:00:42;101010.58;;;27.70;25.57
69239;BME280;56349;51.816;-0.026;2022-07-01T12:03:08;101011.49;;;27.70;25.65
69239;BME280;56349;51.816;-0.026;2022-07-01T12:05:35;101016.61;;;27.72;25.57
69239;BME280;56349;51.816;-0.026;2022-07-01T12:08:00;101016.26;;;27.72;25.57
69239;BME280;56349;51.816;-0.026;2022-07-01T12:10:26;101018.04;;;27.72;25.51
69239;BME280;56349;51.816;-0.026;2022-07-01T12:12:51;101015.90;;;27.61;25.60
69239;BME280;56349;51.816;-0.026;2022-07-01T12:15:17;101015.86;;;27.48;25.68
69239;BME280;56349;51.816;-0.026;2022-07-01T12:17:43;101019.80;;;27.54;25.97
69239;BME280;56349;51.816;-0.026;2022-07-01T12:20:08;101021.42;;;27.59;26.24
69239;BME280;56349;51.816;-0.026;2022-07-01T12:22:33;101020.58;;;27.23;26.42
69239;BME280;56349;51.816;-0.026;2022-07-01T12:25:05;101026.57;;;27.31;26.70
69239;BME280;56349;51.816;-0.026;2022-07-01T12:27:25;101027.46;;;27.01;26.79
69239;BME280;56349;51.816;-0.026;2022-07-01T12:29:52;101036.42;;;27.18;26.84
69239;BME280;56349;51.816;-0.026;2022-07-01T12:32:17;101034.61;;;27.17;26.89
69239;BME280;56349;51.816;-0.026;2022-07-01T12:34:43;101031.68;;;27.20;26.90
69239;BME280;56349;51.816;-0.026;2022-07-01T12:37:09;101029.01;;;27.01;26.89
69239;BME280;56349;51.816;-0.026;2022-07-01T12:39:32;101031.76;;;27.25;26.95
69239;BME280;56349;51.816;-0.026;2022-07-01T12:41:57;101029.87;;;27.08;26.89
69239;BME280;56349;51.816;-0.026;2022-07-01T12:44:24;101031.21;;;27.37;26.84